sensor_id;sensor_type;location;lat;lon;timestamp;P1;durP1;ratioP1;P2;durP2;ratioP2
18443;SDS011;9350;53.176;8.194;2024-03-08T00:01:32;34.13;;;15.25;;
18443;SDS011;9350;53.176;8.194;2024-03-08T00:04:00;32.78;;;15.27;;
18443;SDS011;9350;53.176;8.194;2024-03-08T00:06:27;34.92;;;15.60;;
18443;SDS011;9350;53.176;8.194;2024-03-08T00:08:53;29.20;;;14.70;;
18443;SDS011;9350;53.176;8.194;2024-03-08T00:11:21;34.47;;;15.55;;
18443;SDS011;9350;53.176;8.194;2024-03-08T00:13:50;34.10;;;14.45;;
18443;SDS011;9350;53.176;8.194;2024-03-08T00:16:18;30.08;;;13.95;;
18443;SDS011;9350;53.176;8.194;2024-03-08T00:18:45;31.10;;;14.38;;
18443;SDS011;9350;53.176;8.194;2024-03-08T00:21:14;27.73;;;13.07;;
18443;SDS011;9350;53.176;8.194;2024-03-08T00:23:41;31.90;;;13.90;;
18443;SDS011;9350;53.176;8.194;2024-03-08T00:26:08;28.00;;;13.73;;
18443;SDS011;9350;53.176;8.194;2024-03-08T00:28:35;27.77;;;13.15;;
18443;SDS011;9350;53.176;8.194;2024-03-08T00:31:02;31.20;;;14.20;;
18443;SDS011;9350;53.176;8.194;2024-03-08T00:33:29;29.83;;;14.55;;
18443;SDS011;9350;53.176;8.194;2024-03-08T00:35:56;29.42;;;13.68;;
18443;SDS011;9350;53.176;8.194;2024-03-08T00:38:24;30.42;;;13.65;;
18443;SDS011;9350;53.176;8.194;2024-03-08T00:40:51;30.35;;;13.82;;
18443;SDS011;9350;53.176;8.194;2024-03-08T00:43:18;30.52;;;13.73;;
18443;SDS011;9350;53.176;8.194;2024-03-08T00:45:44;29.58;;;13.35;;
18443;SDS011;9350;53.176;8.194;2024-03-08T00:48:11;31.02;;;13.48;;
18443;SDS011;9350;53.176;8.194;2024-03-08T00:50:39;29.85;;;13.73;;
18443;SDS011;9350;53.176;8.194;2024-03-08T00:53:06;29.33;;;13.18;;
18443;SDS011;9350;53.176;8.194;2024-03-08T00:55:34;28.55;;;13.45;;
18443;SDS011;9350;53.176;8.194;2024-03-08T00:58:01;29.63;;;13.60;;
18443;SDS011;9350;53.176;8.194;2024-03-08T01:00:27;28.75;;;13.30;;
18443;SDS011;9350;53.176;8.194;2024-03-08T01:02:54;28.70;;;13.60;;
18443;SDS011;9350;53.176;8.194;2024-03-08T01:05:21;25.20;;;12.48;;
18443;SDS011;9350;53.176;8.194;2024-03-08T01:07:49;30.10;;;12.73;;
18443;SDS011;9350;53.176;8.194;2024-03-08T01:10:16;29.75;;;12.18;;
18443;SDS011;9350;53.176;8.194;2024-03-08T01:12:44;28.35;;;13.27;;
18443;SDS011;9350;53.176;8.194;2024-03-08T01:15:11;28.80;;;12.85;;
18443;SDS011;9350;53.176;8.194;2024-03-08T01:17:38;27.92;;;12.25;;
18443;SDS011;9350;53.176;8.194;2024-03-08T01:20:06;26.17;;;13.20;;
18443;SDS011;9350;53.176;8.194;2024-03-08T01:22:36;28.30;;;12.85;;
18443;SDS011;9350;53.176;8.194;2024-03-08T01:25:02;24.40;;;11.80;;
18443;SDS011;9350;53.176;8.194;2024-03-08T01:27:30;24.80;;;11.90;;
18443;SDS011;9350;53.176;8.194;2024-03-08T01:29:59;25.67;;;11.90;;
18443;SDS011;9350;53.176;8.194;2024-03-08T01:32:25;30.13;;;12.70;;
18443;SDS011;9350;53.176;8.194;2024-03-08T01:34:52;23.48;;;11.35;;
18443;SDS011;9350;53.176;8.194;2024-03-08T01:37:19;25.77;;;12.43;;
18443;SDS011;9350;53.176;8.194;2024-03-08T01:39:46;24.85;;;12.23;;
18443;SDS011;9350;53.176;8.194;2024-03-08T01:42:13;24.60;;;11.70;;
18443;SDS011;9350;53.176;8.194;2024-03-08T01:44:42;27.90;;;11.77;;
18443;SDS011;9350;53.176;8.194;2024-03-08T01:47:11;25.80;;;11.77;;
18443;SDS011;9350;53.176;8.194;2024-03-08T01:49:37;31.95;;;12.45;;
18443;SDS011;9350;53.176;8.194;2024-03-08T01:52:05;25.25;;;11.95;;
18443;SDS011;9350;53.176;8.194;2024-03-08T01:54:32;25.67;;;11.65;;
18443;SDS011;9350;53.176;8.194;2024-03-08T01:57:00;25.63;;;12.25;;
18443;SDS011;9350;53.176;8.194;2024-03-08T01:59:27;25.48;;;11.80;;
18443;SDS011;9350;53.176;8.194;2024-03-08T02:01:54;24.15;;;11.90;;
18443;SDS011;9350;53.176;8.194;2024-03-08T02:04:25;27.88;;;12.40;;
18443;SDS011;9350;53.176;8.194;2024-03-08T02:06:52;26.17;;;11.77;;
18443;SDS011;9350;53.176;8.194;2024-03-08T02:09:18;23.38;;;11.40;;
18443;SDS011;9350;53.176;8.194;2024-03-08T02:11:45;30.08;;;12.23;;
18443;SDS011;9350;53.176;8.194;2024-03-08T02:14:12;26.33;;;12.00;;
18443;SDS011;9350;53.176;8.194;2024-03-08T02:16:39;24.23;;;12.07;;
18443;SDS011;9350;53.176;8.194;2024-03-08T02:19:06;25.42;;;11.95;;
18443;SDS011;9350;53.176;8.194;2024-03-08T02:21:36;24.65;;;12.30;;
18443;SDS011;9350;53.176;8.194;2024-03-08T02:24:03;24.52;;;10.95;;
18443;SDS011;9350;53.176;8.194;2024-03-08T02:26:30;23.50;;;12.00;;
18443;SDS011;9350;53.176;8.194;2024-03-08T02:28:57;24.00;;;11.38;;
18443;SDS011;9350;53.176;8.194;2024-03-08T02:31:24;23.23;;;12.07;;
18443;SDS011;9350;53.176;8.194;2024-03-08T02:33:51;22.70;;;11.70;;
18443;SDS011;9350;53.176;8.194;2024-03-08T02:36:18;24.05;;;11.45;;
18443;SDS011;9350;53.176;8.194;2024-03-08T02:38:46;26.05;;;11.75;;
18443;SDS011;9350;53.176;8.194;2024-03-08T02:41:12;25.35;;;11.00;;
18443;SDS011;9350;53.176;8.194;2024-03-08T02:43:39;24.33;;;11.65;;
18443;SDS011;9350;53.176;8.194;2024-03-08T02:46:06;25.30;;;10.95;;
18443;SDS011;9350;53.176;8.194;2024-03-08T02:48:33;24.17;;;11.23;;
18443;SDS011;9350;53.176;8.194;2024-03-08T02:51:00;27.80;;;11.70;;
18443;SDS011;9350;53.176;8.194;2024-03-08T02:53:27;22.95;;;12.07;;
18443;SDS011;9350;53.176;8.194;2024-03-08T02:55:55;26.67;;;11.95;;
18443;SDS011;9350;53.176;8.194;2024-03-08T02:58:22;22.73;;;12.13;;
18443;SDS011;9350;53.176;8.194;2024-03-08T03:00:49;27.30;;;11.52;;
18443;SDS011;9350;53.176;8.194;2024-03-08T03:03:16;23.23;;;10.95;;
18443;SDS011;9350;53.176;8.194;2024-03-08T03:05:42;24.20;;;11.15;;
18443;SDS011;9350;53.176;8.194;2024-03-08T03:08:09;28.65;;;11.40;;
18443;SDS011;9350;53.176;8.194;2024-03-08T03:10:37;23.70;;;11.77;;
18443;SDS011;9350;53.176;8.194;2024-03-08T03:13:05;25.25;;;11.25;;
18443;SDS011;9350;53.176;8.194;2024-03-08T03:15:32;26.95;;;11.77;;
18443;SDS011;9350;53.176;8.194;2024-03-08T03:17:59;26.88;;;11.50;;
18443;SDS011;9350;53.176;8.194;2024-03-08T03:20:26;23.70;;;11.57;;
18443;SDS011;9350;53.176;8.194;2024-03-08T03:22:57;24.00;;;11.93;;
18443;SDS011;9350;53.176;8.194;2024-03-08T03:25:26;26.92;;;12.85;;
18443;SDS011;9350;53.176;8.194;2024-03-08T03:27:59;22.63;;;11.98;;
18443;SDS011;9350;53.176;8.194;2024-03-08T03:30:27;24.45;;;12.35;;
18443;SDS011;9350;53.176;8.194;2024-03-08T03:32:58;23.55;;;11.43;;
18443;SDS011;9350;53.176;8.194;2024-03-08T03:35:26;23.90;;;11.48;;
18443;SDS011;9350;53.176;8.194;2024-03-08T03:37:54;24.75;;;11.32;;
18443;SDS011;9350;53.176;8.194;2024-03-08T03:40:27;28.08;;;11.82;;
18443;SDS011;9350;53.176;8.194;2024-03-08T03:42:54;23.42;;;12.55;;
18443;SDS011;9350;53.176;8.194;2024-03-08T03:45:21;28.05;;;12.02;;
18443;SDS011;9350;53.176;8.194;2024-03-08T03:47:49;27.65;;;12.38;;
18443;SDS011;9350;53.176;8.194;2024-03-08T03:50:17;21.88;;;11.20;;
18443;SDS011;9350;53.176;8.194;2024-03-08T03:52:45;27.80;;;12.52;;
18443;SDS011;9350;53.176;8.194;2024-03-08T03:55:12;31.08;;;12.75;;
18443;SDS011;9350;53.176;8.194;2024-03-08T03:57:38;23.52;;;11.02;;
18443;SDS011;9350;53.176;8.194;2024-03-08T04:00:06;24.33;;;11.43;;
18443;SDS011;9350;53.176;8.194;2024-03-08T04:02:35;24.38;;;11.02;;
18443;SDS011;9350;53.176;8.194;2024-03-08T04:05:05;24.42;;;11.57;;
18443;SDS011;9350;53.176;8.194;2024-03-08T04:07:32;26.05;;;12.13;;
18443;SDS011;9350;53.176;8.194;2024-03-08T04:09:59;22.73;;;11.25;;
18443;SDS011;9350;53.176;8.194;2024-03-08T04:12:26;25.20;;;11.82;;
18443;SDS011;9350;53.176;8.194;2024-03-08T04:14:54;21.70;;;11.88;;
18443;SDS011;9350;53.176;8.194;2024-03-08T04:17:21;20.15;;;11.10;;
18443;SDS011;9350;53.176;8.194;2024-03-08T04:19:49;24.45;;;12.25;;
18443;SDS011;9350;53.176;8.194;2024-03-08T04:22:17;25.30;;;12.70;;
18443;SDS011;9350;53.176;8.194;2024-03-08T04:24:44;23.40;;;11.68;;
18443;SDS011;9350;53.176;8.194;2024-03-08T04:27:12;23.13;;;11.77;;
18443;SDS011;9350;53.176;8.194;2024-03-08T04:29:39;23.50;;;11.70;;
18443;SDS011;9350;53.176;8.194;2024-03-08T04:32:06;30.00;;;12.05;;
18443;SDS011;9350;53.176;8.194;2024-03-08T04:34:33;22.55;;;11.63;;
18443;SDS011;9350;53.176;8.194;2024-03-08T04:37:00;24.10;;;12.57;;
18443;SDS011;9350;53.176;8.194;2024-03-08T04:39:31;23.42;;;12.82;;
18443;SDS011;9350;53.176;8.194;2024-03-08T04:41:59;21.42;;;10.95;;
18443;SDS011;9350;53.176;8.194;2024-03-08T04:44:29;27.00;;;12.25;;
18443;SDS011;9350;53.176;8.194;2024-03-08T04:46:56;24.70;;;11.82;;
18443;SDS011;9350;53.176;8.194;2024-03-08T04:49:23;21.98;;;11.90;;
18443;SDS011;9350;53.176;8.194;2024-03-08T04:51:50;23.83;;;12.07;;
18443;SDS011;9350;53.176;8.194;2024-03-08T04:54:17;24.70;;;12.07;;
18443;SDS011;9350;53.176;8.194;2024-03-08T04:56:45;29.88;;;13.05;;
18443;SDS011;9350;53.176;8.194;2024-03-08T04:59:12;27.98;;;12.13;;
18443;SDS011;9350;53.176;8.194;2024-03-08T05:01:39;23.00;;;12.40;;
18443;SDS011;9350;53.176;8.194;2024-03-08T05:04:05;26.67;;;11.90;;
18443;SDS011;9350;53.176;8.194;2024-03-08T05:06:32;25.00;;;12.48;;
18443;SDS011;9350;53.176;8.194;2024-03-08T05:08:59;28.00;;;12.25;;
18443;SDS011;9350;53.176;8.194;2024-03-08T05:11:26;24.50;;;12.07;;
18443;SDS011;9350;53.176;8.194;2024-03-08T05:13:54;28.98;;;12.90;;
18443;SDS011;9350;53.176;8.194;2024-03-08T05:16:23;27.52;;;12.32;;
18443;SDS011;9350;53.176;8.194;2024-03-08T05:18:50;33.00;;;13.23;;
18443;SDS011;9350;53.176;8.194;2024-03-08T05:21:17;30.30;;;12.98;;
18443;SDS011;9350;53.176;8.194;2024-03-08T05:23:45;26.42;;;12.05;;
18443;SDS011;9350;53.176;8.194;2024-03-08T05:26:13;24.42;;;13.30;;
18443;SDS011;9350;53.176;8.194;2024-03-08T05:28:40;24.58;;;12.27;;
18443;SDS011;9350;53.176;8.194;2024-03-08T05:31:08;26.08;;;12.52;;
18443;SDS011;9350;53.176;8.194;2024-03-08T05:33:35;28.58;;;13.32;;
18443;SDS011;9350;53.176;8.194;2024-03-08T05:36:02;30.75;;;12.35;;
18443;SDS011;9350;53.176;8.194;2024-03-08T05:38:29;25.88;;;12.77;;
18443;SDS011;9350;53.176;8.194;2024-03-08T05:40:55;32.63;;;13.75;;
18443;SDS011;9350;53.176;8.194;2024-03-08T05:43:22;29.48;;;13.18;;
18443;SDS011;9350;53.176;8.194;2024-03-08T05:45:49;33.00;;;13.68;;
18443;SDS011;9350;53.176;8.194;2024-03-08T05:48:18;27.38;;;12.98;;
18443;SDS011;9350;53.176;8.194;2024-03-08T05:50:45;31.15;;;13.50;;
18443;SDS011;9350;53.176;8.194;2024-03-08T05:53:12;28.58;;;12.93;;
18443;SDS011;9350;53.176;8.194;2024-03-08T05:55:38;26.13;;;12.27;;
18443;SDS011;9350;53.176;8.194;2024-03-08T05:58:05;28.88;;;12.98;;
18443;SDS011;9350;53.176;8.194;2024-03-08T06:00:33;25.38;;;13.00;;
18443;SDS011;9350;53.176;8.194;2024-03-08T06:03:01;31.33;;;12.88;;
18443;SDS011;9350;53.176;8.194;2024-03-08T06:05:30;30.83;;;13.32;;
18443;SDS011;9350;53.176;8.194;2024-03-08T06:07:56;26.95;;;12.80;;
18443;SDS011;9350;53.176;8.194;2024-03-08T06:10:23;29.50;;;13.13;;
18443;SDS011;9350;53.176;8.194;2024-03-08T06:12:50;34.83;;;14.27;;
18443;SDS011;9350;53.176;8.194;2024-03-08T06:15:17;27.95;;;13.35;;
18443;SDS011;9350;53.176;8.194;2024-03-08T06:17:46;28.85;;;13.32;;
18443;SDS011;9350;53.176;8.194;2024-03-08T06:20:13;31.40;;;14.23;;
18443;SDS011;9350;53.176;8.194;2024-03-08T06:22:41;28.67;;;13.73;;
18443;SDS011;9350;53.176;8.194;2024-03-08T06:25:09;31.02;;;13.65;;
18443;SDS011;9350;53.176;8.194;2024-03-08T06:27:39;26.33;;;13.32;;
18443;SDS011;9350;53.176;8.194;2024-03-08T06:30:07;27.90;;;13.32;;
18443;SDS011;9350;53.176;8.194;2024-03-08T06:32:35;25.60;;;12.65;;
18443;SDS011;9350;53.176;8.194;2024-03-08T06:35:02;27.92;;;13.93;;
18443;SDS011;9350;53.176;8.194;2024-03-08T06:37:31;30.80;;;13.18;;
18443;SDS011;9350;53.176;8.194;2024-03-08T06:39:59;28.48;;;13.73;;
18443;SDS011;9350;53.176;8.194;2024-03-08T06:42:26;29.23;;;14.05;;
18443;SDS011;9350;53.176;8.194;2024-03-08T06:44:54;30.23;;;14.13;;
18443;SDS011;9350;53.176;8.194;2024-03-08T06:47:29;26.67;;;14.20;;
18443;SDS011;9350;53.176;8.194;2024-03-08T06:49:56;27.35;;;13.65;;
18443;SDS011;9350;53.176;8.194;2024-03-08T06:52:23;26.00;;;14.02;;
18443;SDS011;9350;53.176;8.194;2024-03-08T06:54:49;28.88;;;13.48;;
18443;SDS011;9350;53.176;8.194;2024-03-08T06:57:18;27.75;;;13.68;;
18443;SDS011;9350;53.176;8.194;2024-03-08T06:59:47;29.55;;;13.00;;
18443;SDS011;9350;53.176;8.194;2024-03-08T07:02:13;30.77;;;14.98;;
18443;SDS011;9350;53.176;8.194;2024-03-08T07:04:40;26.58;;;13.23;;
18443;SDS011;9350;53.176;8.194;2024-03-08T07:07:07;30.23;;;13.88;;
18443;SDS011;9350;53.176;8.194;2024-03-08T07:09:34;29.98;;;13.85;;
18443;SDS011;9350;53.176;8.194;2024-03-08T07:12:01;30.17;;;14.25;;
18443;SDS011;9350;53.176;8.194;2024-03-08T07:14:30;28.08;;;13.00;;
18443;SDS011;9350;53.176;8.194;2024-03-08T07:16:57;32.13;;;15.07;;
18443;SDS011;9350;53.176;8.194;2024-03-08T07:19:24;28.17;;;14.05;;
18443;SDS011;9350;53.176;8.194;2024-03-08T07:21:50;32.70;;;14.30;;
18443;SDS011;9350;53.176;8.194;2024-03-08T07:24:17;34.92;;;14.95;;
18443;SDS011;9350;53.176;8.194;2024-03-08T07:27:05;35.50;;;14.95;;
18443;SDS011;9350;53.176;8.194;2024-03-08T07:29:33;31.67;;;14.65;;
18443;SDS011;9350;53.176;8.194;2024-03-08T07:32:00;34.72;;;15.48;;
18443;SDS011;9350;53.176;8.194;2024-03-08T07:34:37;31.45;;;14.75;;
18443;SDS011;9350;53.176;8.194;2024-03-08T07:37:05;28.15;;;14.18;;
18443;SDS011;9350;53.176;8.194;2024-03-08T07:39:36;30.77;;;14.85;;
18443;SDS011;9350;53.176;8.194;2024-03-08T07:42:03;32.28;;;15.32;;
18443;SDS011;9350;53.176;8.194;2024-03-08T07:44:30;36.88;;;15.63;;
18443;SDS011;9350;53.176;8.194;2024-03-08T07:46:59;34.20;;;15.90;;
18443;SDS011;9350;53.176;8.194;2024-03-08T07:49:26;31.33;;;14.73;;
18443;SDS011;9350;53.176;8.194;2024-03-08T07:51:53;30.45;;;14.73;;
18443;SDS011;9350;53.176;8.194;2024-03-08T07:54:20;36.90;;;16.05;;
18443;SDS011;9350;53.176;8.194;2024-03-08T07:56:46;32.80;;;14.73;;
18443;SDS011;9350;53.176;8.194;2024-03-08T07:59:13;28.75;;;14.98;;
18443;SDS011;9350;53.176;8.194;2024-03-08T08:01:40;35.42;;;15.57;;
18443;SDS011;9350;53.176;8.194;2024-03-08T08:04:08;29.92;;;15.23;;
18443;SDS011;9350;53.176;8.194;2024-03-08T08:06:37;29.48;;;14.77;;
18443;SDS011;9350;53.176;8.194;2024-03-08T08:09:06;28.25;;;15.07;;
18443;SDS011;9350;53.176;8.194;2024-03-08T08:11:39;29.48;;;14.00;;
18443;SDS011;9350;53.176;8.194;2024-03-08T08:14:06;35.70;;;15.40;;
18443;SDS011;9350;53.176;8.194;2024-03-08T08:16:34;29.58;;;14.93;;
18443;SDS011;9350;53.176;8.194;2024-03-08T08:19:01;33.00;;;14.45;;
18443;SDS011;9350;53.176;8.194;2024-03-08T08:21:31;29.38;;;14.60;;
18443;SDS011;9350;53.176;8.194;2024-03-08T08:23:58;29.42;;;15.02;;
18443;SDS011;9350;53.176;8.194;2024-03-08T08:26:25;30.98;;;14.27;;
18443;SDS011;9350;53.176;8.194;2024-03-08T08:28:52;28.45;;;14.48;;
18443;SDS011;9350;53.176;8.194;2024-03-08T08:31:19;31.40;;;14.70;;
18443;SDS011;9350;53.176;8.194;2024-03-08T08:33:46;31.15;;;15.05;;
18443;SDS011;9350;53.176;8.194;2024-03-08T08:36:14;32.58;;;15.23;;
18443;SDS011;9350;53.176;8.194;2024-03-08T08:38:42;31.15;;;14.38;;
18443;SDS011;9350;53.176;8.194;2024-03-08T08:41:09;33.03;;;15.93;;
18443;SDS011;9350;53.176;8.194;2024-03-08T08:43:36;29.15;;;15.32;;
18443;SDS011;9350;53.176;8.194;2024-03-08T08:46:04;29.63;;;14.77;;
18443;SDS011;9350;53.176;8.194;2024-03-08T08:48:31;30.98;;;14.70;;
18443;SDS011;9350;53.176;8.194;2024-03-08T08:50:58;31.70;;;14.73;;
18443;SDS011;9350;53.176;8.194;2024-03-08T08:53:25;32.65;;;16.17;;
18443;SDS011;9350;53.176;8.194;2024-03-08T08:55:54;29.60;;;14.73;;
18443;SDS011;9350;53.176;8.194;2024-03-08T08:58:21;31.05;;;15.48;;
18443;SDS011;9350;53.176;8.194;2024-03-08T09:00:48;29.38;;;14.27;;
18443;SDS011;9350;53.176;8.194;2024-03-08T09:03:17;27.30;;;13.85;;
18443;SDS011;9350;53.176;8.194;2024-03-08T09:05:44;31.95;;;15.27;;
18443;SDS011;9350;53.176;8.194;2024-03-08T09:08:11;30.55;;;14.57;;
18443;SDS011;9350;53.176;8.194;2024-03-08T09:10:38;29.50;;;14.60;;
18443;SDS011;9350;53.176;8.194;2024-03-08T09:13:06;29.80;;;14.68;;
18443;SDS011;9350;53.176;8.194;2024-03-08T09:15:35;28.67;;;13.63;;
18443;SDS011;9350;53.176;8.194;2024-03-08T09:18:04;29.98;;;14.18;;
18443;SDS011;9350;53.176;8.194;2024-03-08T09:20:31;32.53;;;15.25;;
18443;SDS011;9350;53.176;8.194;2024-03-08T09:22:58;31.85;;;14.75;;
18443;SDS011;9350;53.176;8.194;2024-03-08T09:25:25;34.70;;;14.43;;
18443;SDS011;9350;53.176;8.194;2024-03-08T09:27:51;32.72;;;15.35;;
18443;SDS011;9350;53.176;8.194;2024-03-08T09:30:20;26.98;;;14.50;;
18443;SDS011;9350;53.176;8.194;2024-03-08T09:32:47;27.70;;;14.18;;
18443;SDS011;9350;53.176;8.194;2024-03-08T09:35:16;27.90;;;14.63;;
18443;SDS011;9350;53.176;8.194;2024-03-08T09:37:43;26.00;;;13.75;;
18443;SDS011;9350;53.176;8.194;2024-03-08T09:40:12;29.13;;;14.10;;
18443;SDS011;9350;53.176;8.194;2024-03-08T09:42:40;21.17;;;13.05;;
18443;SDS011;9350;53.176;8.194;2024-03-08T09:45:07;31.65;;;14.75;;
18443;SDS011;9350;53.176;8.194;2024-03-08T09:47:38;32.05;;;14.90;;
18443;SDS011;9350;53.176;8.194;2024-03-08T09:50:07;30.17;;;14.32;;
18443;SDS011;9350;53.176;8.194;2024-03-08T09:52:34;31.00;;;15.70;;
18443;SDS011;9350;53.176;8.194;2024-03-08T09:55:03;27.48;;;13.98;;
18443;SDS011;9350;53.176;8.194;2024-03-08T09:57:31;27.52;;;14.13;;
18443;SDS011;9350;53.176;8.194;2024-03-08T09:59:58;31.88;;;14.75;;
18443;SDS011;9350;53.176;8.194;2024-03-08T10:02:25;27.55;;;14.15;;
18443;SDS011;9350;53.176;8.194;2024-03-08T10:04:53;30.50;;;14.45;;
18443;SDS011;9350;53.176;8.194;2024-03-08T10:07:20;32.85;;;14.55;;
18443;SDS011;9350;53.176;8.194;2024-03-08T10:09:47;30.30;;;13.98;;
18443;SDS011;9350;53.176;8.194;2024-03-08T10:12:15;30.45;;;15.13;;
18443;SDS011;9350;53.176;8.194;2024-03-08T10:14:42;25.63;;;14.18;;
18443;SDS011;9350;53.176;8.194;2024-03-08T10:17:09;25.80;;;14.65;;
18443;SDS011;9350;53.176;8.194;2024-03-08T10:19:36;28.27;;;14.23;;
18443;SDS011;9350;53.176;8.194;2024-03-08T10:22:05;29.20;;;14.88;;
18443;SDS011;9350;53.176;8.194;2024-03-08T10:24:32;27.98;;;14.23;;
18443;SDS011;9350;53.176;8.194;2024-03-08T10:27:00;29.40;;;15.15;;
18443;SDS011;9350;53.176;8.194;2024-03-08T10:29:29;29.25;;;15.13;;
18443;SDS011;9350;53.176;8.194;2024-03-08T10:31:57;33.75;;;15.63;;
18443;SDS011;9350;53.176;8.194;2024-03-08T10:34:23;31.58;;;15.80;;
18443;SDS011;9350;53.176;8.194;2024-03-08T10:36:51;29.30;;;15.88;;
18443;SDS011;9350;53.176;8.194;2024-03-08T10:39:22;28.90;;;15.18;;
18443;SDS011;9350;53.176;8.194;2024-03-08T10:41:52;27.35;;;14.32;;
18443;SDS011;9350;53.176;8.194;2024-03-08T10:44:26;29.58;;;15.10;;
18443;SDS011;9350;53.176;8.194;2024-03-08T10:47:09;28.17;;;14.27;;
18443;SDS011;9350;53.176;8.194;2024-03-08T10:49:46;33.20;;;14.63;;
18443;SDS011;9350;53.176;8.194;2024-03-08T10:52:21;28.25;;;15.02;;
18443;SDS011;9350;53.176;8.194;2024-03-08T10:54:49;31.90;;;15.40;;
18443;SDS011;9350;53.176;8.194;2024-03-08T10:57:20;25.55;;;14.40;;
18443;SDS011;9350;53.176;8.194;2024-03-08T10:59:49;31.45;;;15.35;;
18443;SDS011;9350;53.176;8.194;2024-03-08T11:02:17;28.00;;;15.18;;
18443;SDS011;9350;53.176;8.194;2024-03-08T11:04:48;30.48;;;15.57;;
18443;SDS011;9350;53.176;8.194;2024-03-08T11:07:16;31.30;;;15.60;;
18443;SDS011;9350;53.176;8.194;2024-03-08T11:09:44;27.33;;;14.77;;
18443;SDS011;9350;53.176;8.194;2024-03-08T11:12:21;28.92;;;14.98;;
18443;SDS011;9350;53.176;8.194;2024-03-08T11:14:52;25.60;;;14.45;;
18443;SDS011;9350;53.176;8.194;2024-03-08T11:17:25;29.48;;;15.07;;
18443;SDS011;9350;53.176;8.194;2024-03-08T11:20:08;27.33;;;14.55;;
18443;SDS011;9350;53.176;8.194;2024-03-08T11:22:40;26.10;;;14.05;;
18443;SDS011;9350;53.176;8.194;2024-03-08T11:25:15;26.63;;;14.90;;
18443;SDS011;9350;53.176;8.194;2024-03-08T11:28:07;31.63;;;15.48;;
18443;SDS011;9350;53.176;8.194;2024-03-08T11:30:41;31.75;;;15.68;;
18443;SDS011;9350;53.176;8.194;2024-03-08T11:33:10;28.45;;;15.57;;
18443;SDS011;9350;53.176;8.194;2024-03-08T11:35:38;29.30;;;15.40;;
18443;SDS011;9350;53.176;8.194;2024-03-08T11:38:07;29.15;;;15.23;;
18443;SDS011;9350;53.176;8.194;2024-03-08T11:40:34;28.02;;;15.27;;
18443;SDS011;9350;53.176;8.194;2024-03-08T11:43:02;29.58;;;14.40;;
18443;SDS011;9350;53.176;8.194;2024-03-08T11:45:33;30.45;;;15.63;;
18443;SDS011;9350;53.176;8.194;2024-03-08T11:48:01;29.98;;;15.23;;
18443;SDS011;9350;53.176;8.194;2024-03-08T11:50:29;26.55;;;15.10;;
18443;SDS011;9350;53.176;8.194;2024-03-08T11:53:00;30.90;;;14.98;;
18443;SDS011;9350;53.176;8.194;2024-03-08T11:55:28;29.48;;;14.98;;
18443;SDS011;9350;53.176;8.194;2024-03-08T11:57:59;26.92;;;14.95;;
18443;SDS011;9350;53.176;8.194;2024-03-08T12:00:27;28.45;;;14.85;;
18443;SDS011;9350;53.176;8.194;2024-03-08T12:03:05;27.35;;;14.82;;
18443;SDS011;9350;53.176;8.194;2024-03-08T12:05:34;27.25;;;14.65;;
18443;SDS011;9350;53.176;8.194;2024-03-08T12:08:03;27.13;;;15.15;;
18443;SDS011;9350;53.176;8.194;2024-03-08T12:10:31;26.42;;;14.82;;
18443;SDS011;9350;53.176;8.194;2024-03-08T12:13:00;26.95;;;14.38;;
18443;SDS011;9350;53.176;8.194;2024-03-08T12:15:28;25.15;;;14.40;;
18443;SDS011;9350;53.176;8.194;2024-03-08T12:17:57;28.00;;;15.18;;
18443;SDS011;9350;53.176;8.194;2024-03-08T12:20:27;28.20;;;14.20;;
18443;SDS011;9350;53.176;8.194;2024-03-08T12:22:56;26.23;;;14.45;;
18443;SDS011;9350;53.176;8.194;2024-03-08T12:25:25;26.98;;;14.25;;
18443;SDS011;9350;53.176;8.194;2024-03-08T12:27:53;29.38;;;15.00;;
18443;SDS011;9350;53.176;8.194;2024-03-08T12:30:22;29.20;;;14.65;;
18443;SDS011;9350;53.176;8.194;2024-03-08T12:32:52;27.98;;;15.35;;
18443;SDS011;9350;53.176;8.194;2024-03-08T12:35:21;28.50;;;15.02;;
18443;SDS011;9350;53.176;8.194;2024-03-08T12:37:51;27.08;;;14.27;;
18443;SDS011;9350;53.176;8.194;2024-03-08T12:40:19;26.98;;;14.52;;
18443;SDS011;9350;53.176;8.194;2024-03-08T12:42:52;24.42;;;14.07;;
18443;SDS011;9350;53.176;8.194;2024-03-08T12:45:20;25.02;;;14.13;;
18443;SDS011;9350;53.176;8.194;2024-03-08T12:47:49;24.08;;;13.13;;
18443;SDS011;9350;53.176;8.194;2024-03-08T12:50:18;26.45;;;13.85;;
18443;SDS011;9350;53.176;8.194;2024-03-08T12:52:45;22.20;;;13.15;;
18443;SDS011;9350;53.176;8.194;2024-03-08T12:55:13;24.70;;;12.98;;
18443;SDS011;9350;53.176;8.194;2024-03-08T12:57:41;25.98;;;13.85;;
18443;SDS011;9350;53.176;8.194;2024-03-08T13:00:09;25.67;;;13.77;;
18443;SDS011;9350;53.176;8.194;2024-03-08T13:02:38;23.15;;;13.68;;
18443;SDS011;9350;53.176;8.194;2024-03-08T13:05:07;27.60;;;14.75;;
18443;SDS011;9350;53.176;8.194;2024-03-08T13:07:36;25.25;;;13.90;;
18443;SDS011;9350;53.176;8.194;2024-03-08T13:10:03;22.25;;;12.95;;
18443;SDS011;9350;53.176;8.194;2024-03-08T13:12:33;27.58;;;13.85;;
18443;SDS011;9350;53.176;8.194;2024-03-08T13:15:03;24.20;;;13.20;;
18443;SDS011;9350;53.176;8.194;2024-03-08T13:17:30;22.50;;;13.13;;
18443;SDS011;9350;53.176;8.194;2024-03-08T13:19:58;26.42;;;14.05;;
18443;SDS011;9350;53.176;8.194;2024-03-08T13:22:25;24.67;;;13.27;;
18443;SDS011;9350;53.176;8.194;2024-03-08T13:24:53;26.17;;;13.30;;
18443;SDS011;9350;53.176;8.194;2024-03-08T13:27:20;25.15;;;13.35;;
18443;SDS011;9350;53.176;8.194;2024-03-08T13:29:51;21.50;;;12.77;;
18443;SDS011;9350;53.176;8.194;2024-03-08T13:32:18;22.83;;;13.48;;
18443;SDS011;9350;53.176;8.194;2024-03-08T13:34:47;23.50;;;13.10;;
18443;SDS011;9350;53.176;8.194;2024-03-08T13:37:15;22.00;;;12.43;;
18443;SDS011;9350;53.176;8.194;2024-03-08T13:39:43;21.58;;;12.35;;
18443;SDS011;9350;53.176;8.194;2024-03-08T13:42:10;22.23;;;12.18;;
18443;SDS011;9350;53.176;8.194;2024-03-08T13:44:38;21.75;;;12.00;;
18443;SDS011;9350;53.176;8.194;2024-03-08T13:47:07;23.40;;;12.40;;
18443;SDS011;9350;53.176;8.194;2024-03-08T13:49:36;22.77;;;13.00;;
18443;SDS011;9350;53.176;8.194;2024-03-08T13:52:04;23.17;;;12.70;;
18443;SDS011;9350;53.176;8.194;2024-03-08T13:54:33;22.45;;;12.38;;
18443;SDS011;9350;53.176;8.194;2024-03-08T13:57:00;22.08;;;12.45;;
18443;SDS011;9350;53.176;8.194;2024-03-08T13:59:28;23.38;;;13.63;;
18443;SDS011;9350;53.176;8.194;2024-03-08T14:01:57;22.50;;;12.48;;
18443;SDS011;9350;53.176;8.194;2024-03-08T14:04:27;23.77;;;13.18;;
18443;SDS011;9350;53.176;8.194;2024-03-08T14:06:54;26.95;;;13.93;;
18443;SDS011;9350;53.176;8.194;2024-03-08T14:09:29;23.60;;;13.13;;
18443;SDS011;9350;53.176;8.194;2024-03-08T14:11:56;25.23;;;12.95;;
18443;SDS011;9350;53.176;8.194;2024-03-08T14:14:23;25.52;;;13.50;;
18443;SDS011;9350;53.176;8.194;2024-03-08T14:16:50;23.20;;;13.90;;
18443;SDS011;9350;53.176;8.194;2024-03-08T14:19:19;25.08;;;14.15;;
18443;SDS011;9350;53.176;8.194;2024-03-08T14:21:47;23.10;;;13.13;;
18443;SDS011;9350;53.176;8.194;2024-03-08T14:24:16;26.20;;;14.00;;
18443;SDS011;9350;53.176;8.194;2024-03-08T14:26:43;24.63;;;13.52;;
18443;SDS011;9350;53.176;8.194;2024-03-08T14:29:11;24.70;;;14.18;;
18443;SDS011;9350;53.176;8.194;2024-03-08T14:31:38;24.65;;;14.25;;
18443;SDS011;9350;53.176;8.194;2024-03-08T14:34:06;25.73;;;13.85;;
18443;SDS011;9350;53.176;8.194;2024-03-08T14:36:34;26.70;;;14.52;;
18443;SDS011;9350;53.176;8.194;2024-03-08T14:39:02;25.60;;;14.00;;